Terminal Aerodrome Forecast
Issued by NWS Sterling, VA

Current Version | Previous Version | Graphics & Text | Print | Product List | Glossary On
Versions: 1 2 3 4 5 6 7 8 9 10 11 12 13 14 15 16 17 18 19 20 21 22 23 24 25
355
FTUS41 KLWX 061735
TAFDCA
TAF
KDCA 061735Z 0618/0718 07006KT 5SM RA SCT025 OVC050
     FM062000 06007KT 3SM RA OVC008
     FM062200 05008KT 3SM -RA OVC003
     FM070600 35006KT P6SM OVC008
     FM070900 33006KT P6SM OVC025
     FM071200 32006KT P6SM BKN050
     FM071600 32010G17KT P6SM SCT050=

USA.gov is the U.S. government's official web portal to all federal, state and local government web resources and services.